createdAt,value
2024-04-24T00:01:18.856Z,5.24
2024-04-24T00:03:45.822Z,5.26
2024-04-24T00:06:12.675Z,5.15
2024-04-24T00:08:39.541Z,5.13
2024-04-24T00:11:06.518Z,5.14
2024-04-24T00:13:33.417Z,5.12
2024-04-24T00:16:03.093Z,5.23
2024-04-24T00:18:30.043Z,5.20
2024-04-24T00:20:56.946Z,5.23
2024-04-24T00:23:23.848Z,5.19
2024-04-24T00:25:50.801Z,5.25
2024-04-24T00:28:17.653Z,5.22
2024-04-24T00:30:44.499Z,5.12
2024-04-24T00:33:14.015Z,5.03
2024-04-24T00:35:40.923Z,5.01
2024-04-24T00:38:07.782Z,5.02
2024-04-24T00:40:37.704Z,5.08
2024-04-24T00:43:04.680Z,5.01
2024-04-24T00:45:31.484Z,5.09
2024-04-24T00:47:58.380Z,5.03
2024-04-24T00:50:28.128Z,5.01
2024-04-24T00:52:55.037Z,5.08
2024-04-24T00:55:21.965Z,5.10
2024-04-24T00:57:48.893Z,5.14
2024-04-24T01:00:16.091Z,5.12
2024-04-24T01:02:42.991Z,5.02
2024-04-24T01:05:09.982Z,4.88
2024-04-24T01:07:39.555Z,4.98
2024-04-24T01:10:16.523Z,4.86
2024-04-24T01:12:45.126Z,4.67
2024-04-24T01:15:12.031Z,4.81
2024-04-24T01:17:39.337Z,4.83
2024-04-24T01:20:07.260Z,4.97
2024-04-24T01:22:42.170Z,4.96
2024-04-24T01:25:12.547Z,5.12
2024-04-24T01:27:42.016Z,5.06
2024-04-24T01:30:08.996Z,5.02
2024-04-24T01:32:36.110Z,5.05
2024-04-24T01:35:03.315Z,5.08
2024-04-24T01:37:30.228Z,5.10
2024-04-24T01:39:57.060Z,5.05
2024-04-24T01:42:23.894Z,4.99
2024-04-24T01:44:53.332Z,4.97
2024-04-24T01:47:20.271Z,5.02
2024-04-24T01:49:47.201Z,4.95
2024-04-24T01:52:14.065Z,4.95
2024-04-24T01:54:40.945Z,4.97
2024-04-24T01:57:07.772Z,4.84
2024-04-24T01:59:34.590Z,4.84
2024-04-24T02:02:04.107Z,4.74
2024-04-24T02:04:30.993Z,4.65
2024-04-24T02:06:57.848Z,4.72
2024-04-24T02:09:24.660Z,4.67
2024-04-24T02:11:59.566Z,4.70
2024-04-24T02:14:33.700Z,4.70
2024-04-24T02:17:03.304Z,4.66
2024-04-24T02:19:30.163Z,4.69
2024-04-24T02:21:56.996Z,4.64
2024-04-24T02:24:23.898Z,4.65
2024-04-24T02:26:50.795Z,4.75
2024-04-24T02:29:17.762Z,4.78
2024-04-24T02:31:44.687Z,4.81
2024-04-24T02:34:14.287Z,4.80
2024-04-24T02:36:41.127Z,4.71
2024-04-24T02:39:08.005Z,4.73
2024-04-24T02:41:34.823Z,4.76
2024-04-24T02:44:01.665Z,4.80
2024-04-24T02:46:28.554Z,4.80
2024-04-24T02:48:55.424Z,4.72
2024-04-24T02:51:24.928Z,4.68
2024-04-24T02:53:51.736Z,4.62
2024-04-24T02:56:18.700Z,4.59
2024-04-24T02:58:45.659Z,4.57
2024-04-24T03:01:12.692Z,4.58
2024-04-24T03:03:39.703Z,4.63
2024-04-24T03:06:06.637Z,4.59
2024-04-24T03:08:36.163Z,4.59
2024-04-24T03:11:03.205Z,4.54
2024-04-24T03:13:30.134Z,4.56
2024-04-24T03:15:56.964Z,4.59
2024-04-24T03:18:23.826Z,4.44
2024-04-24T03:20:50.711Z,4.42
2024-04-24T03:23:17.719Z,4.41
2024-04-24T03:25:47.326Z,4.44
2024-04-24T03:28:14.233Z,4.42
2024-04-24T03:30:41.164Z,4.28
2024-04-24T03:33:08.144Z,4.32
2024-04-24T03:35:35.082Z,4.34
2024-04-24T03:38:01.914Z,4.30
2024-04-24T03:40:28.773Z,4.31
2024-04-24T03:42:58.261Z,4.38
2024-04-24T03:45:25.049Z,4.26
2024-04-24T03:47:52.697Z,4.14
2024-04-24T03:50:19.614Z,4.03
2024-04-24T03:52:46.494Z,4.00
2024-04-24T03:55:13.410Z,4.03
2024-04-24T03:57:40.229Z,3.99
2024-04-24T04:00:11.305Z,3.71
2024-04-24T04:02:40.956Z,3.75
2024-04-24T04:05:07.842Z,3.75
2024-04-24T04:07:34.699Z,3.81
2024-04-24T04:10:01.609Z,3.88
2024-04-24T04:12:28.424Z,3.85
2024-04-24T04:14:55.244Z,3.99
2024-04-24T04:17:24.910Z,4.08
2024-04-24T04:19:51.838Z,4.13
2024-04-24T04:22:18.675Z,4.14
2024-04-24T04:24:45.522Z,4.16
2024-04-24T04:27:12.360Z,4.08
2024-04-24T04:29:39.217Z,4.24
2024-04-24T04:32:06.145Z,4.21
2024-04-24T04:34:35.633Z,4.26
2024-04-24T04:37:02.473Z,4.27
2024-04-24T04:39:29.384Z,4.32
2024-04-24T04:41:56.217Z,4.36
2024-04-24T04:44:23.215Z,4.41
2024-04-24T04:46:50.354Z,4.41
2024-04-24T04:49:17.352Z,4.41
2024-04-24T04:51:46.876Z,4.48
2024-04-24T04:54:13.834Z,4.53
2024-04-24T04:56:40.760Z,4.56
2024-04-24T04:59:07.644Z,4.47
2024-04-24T05:01:34.508Z,4.54
2024-04-24T05:04:01.410Z,4.54
2024-04-24T05:06:28.688Z,4.58
2024-04-24T05:08:58.208Z,4.56
2024-04-24T05:11:25.094Z,4.65
2024-04-24T05:13:52.044Z,4.37
2024-04-24T05:16:18.986Z,4.46
2024-04-24T05:18:46.054Z,4.26
2024-04-24T05:21:12.932Z,4.28
2024-04-24T05:23:39.859Z,4.39
2024-04-24T05:26:09.387Z,4.45
2024-04-24T05:28:36.277Z,4.54
2024-04-24T05:31:03.281Z,4.60
2024-04-24T05:33:30.187Z,4.64
2024-04-24T05:35:57.052Z,4.69
2024-04-24T05:38:23.949Z,4.69
2024-04-24T05:40:50.841Z,4.60
2024-04-24T05:43:20.301Z,4.67
2024-04-24T05:45:47.194Z,4.57
2024-04-24T05:48:14.192Z,4.75
2024-04-24T05:50:41.244Z,4.85
2024-04-24T05:53:08.086Z,4.87
2024-04-24T05:55:34.936Z,4.89
2024-04-24T05:58:01.755Z,4.92
2024-04-24T06:00:31.214Z,4.86
2024-04-24T06:02:58.149Z,4.81
2024-04-24T06:05:25.019Z,4.79
2024-04-24T06:07:51.962Z,4.91
2024-04-24T06:10:18.927Z,4.94
2024-04-24T06:12:45.836Z,5.09
2024-04-24T06:15:12.859Z,5.08
2024-04-24T06:17:42.464Z,5.14
2024-04-24T06:20:10.108Z,5.22
2024-04-24T06:22:37.004Z,5.36
2024-04-24T06:25:04.042Z,5.38
2024-04-24T06:27:30.965Z,5.47
2024-04-24T06:29:57.777Z,5.52
2024-04-24T06:32:24.740Z,5.56
2024-04-24T06:34:54.317Z,5.65
2024-04-24T06:37:21.297Z,5.71
2024-04-24T06:39:48.213Z,5.76
2024-04-24T06:42:15.073Z,5.93
2024-04-24T06:44:41.931Z,5.84
2024-04-24T06:47:09.054Z,5.85
2024-04-24T06:49:35.937Z,5.88
2024-04-24T06:52:05.418Z,5.90
2024-04-24T06:54:32.274Z,6.03
2024-04-24T06:56:59.194Z,6.09
2024-04-24T06:59:26.285Z,6.10
2024-04-24T07:01:53.229Z,6.16
2024-04-24T07:04:21.181Z,6.25
2024-04-24T07:06:48.144Z,6.35
2024-04-24T07:09:17.585Z,6.41
2024-04-24T07:11:44.487Z,6.49
2024-04-24T07:14:11.434Z,6.49
2024-04-24T07:16:38.339Z,6.59
2024-04-24T07:19:05.324Z,6.65
2024-04-24T07:21:32.239Z,6.71
2024-04-24T07:23:59.225Z,6.73
2024-04-24T07:26:28.899Z,6.78
2024-04-24T07:28:55.827Z,6.85
2024-04-24T07:31:22.706Z,6.94
2024-04-24T07:33:49.557Z,6.89
2024-04-24T07:36:16.409Z,6.91
2024-04-24T07:38:44.036Z,6.87
2024-04-24T07:41:10.950Z,6.92
2024-04-24T07:43:40.445Z,6.95
2024-04-24T07:46:07.265Z,7.03
2024-04-24T07:48:34.303Z,7.04
2024-04-24T07:51:01.299Z,7.05
2024-04-24T07:53:28.338Z,7.17
2024-04-24T07:55:55.340Z,7.19
2024-04-24T07:58:22.248Z,7.24
2024-04-24T08:00:51.924Z,7.13
2024-04-24T08:03:19.003Z,7.08
2024-04-24T08:05:45.933Z,7.16
2024-04-24T08:08:12.894Z,7.24
2024-04-24T08:10:39.760Z,7.30
2024-04-24T08:13:06.604Z,7.29
2024-04-24T08:15:33.451Z,7.44
2024-04-24T08:18:03.083Z,7.62
2024-04-24T08:20:29.988Z,7.73
2024-04-24T08:22:56.916Z,7.73
2024-04-24T08:25:23.778Z,7.85
2024-04-24T08:27:50.919Z,7.82
2024-04-24T08:30:17.782Z,7.91
2024-04-24T08:32:44.903Z,7.92
2024-04-24T08:35:15.102Z,8.08
2024-04-24T08:37:41.918Z,8.20
2024-04-24T08:40:09.289Z,8.30
2024-04-24T08:42:36.173Z,8.28
2024-04-24T08:45:03.192Z,8.22
2024-04-24T08:47:30.160Z,8.02
2024-04-24T08:49:57.080Z,7.74
2024-04-24T08:52:26.528Z,7.66
2024-04-24T08:54:57.588Z,7.80
2024-04-24T08:57:24.566Z,7.86
2024-04-24T08:59:51.418Z,7.82
2024-04-24T09:02:18.409Z,7.99
2024-04-24T09:04:45.325Z,8.02
2024-04-24T09:07:13.282Z,7.89
2024-04-24T09:09:42.736Z,8.15
2024-04-24T09:12:10.085Z,8.16
2024-04-24T09:14:36.990Z,8.20
2024-04-24T09:17:04.121Z,8.37
2024-04-24T09:19:31.620Z,8.49
2024-04-24T09:21:58.454Z,8.52
2024-04-24T09:24:25.381Z,8.63
2024-04-24T09:26:54.828Z,8.74
2024-04-24T09:29:21.656Z,8.79
2024-04-24T09:31:49.062Z,8.90
2024-04-24T09:34:15.884Z,8.92
2024-04-24T09:36:43.495Z,8.88
2024-04-24T09:39:10.666Z,8.93
2024-04-24T09:41:37.650Z,9.08
2024-04-24T09:44:11.056Z,9.12
2024-04-24T09:46:37.956Z,9.02
2024-04-24T09:49:05.033Z,8.95
2024-04-24T09:51:32.255Z,9.15
2024-04-24T09:53:59.076Z,9.05
2024-04-24T09:56:26.108Z,9.14
2024-04-24T09:58:55.449Z,8.83
2024-04-24T10:01:26.176Z,8.94
2024-04-24T10:03:53.368Z,9.04
2024-04-24T10:06:21.646Z,9.19
2024-04-24T10:08:48.636Z,9.30
2024-04-24T10:11:15.544Z,9.52
2024-04-24T10:13:42.837Z,9.43
2024-04-24T10:16:09.679Z,9.44
2024-04-24T10:18:39.251Z,9.52
2024-04-24T10:21:06.724Z,9.21
2024-04-24T10:23:33.639Z,8.97
2024-04-24T10:26:00.545Z,9.16
2024-04-24T10:28:27.634Z,9.24
2024-04-24T10:30:54.533Z,9.37
2024-04-24T10:33:21.646Z,9.64
2024-04-24T10:35:51.244Z,9.47
2024-04-24T10:38:18.324Z,9.63
2024-04-24T10:40:46.106Z,9.55
2024-04-24T10:43:14.477Z,9.50
2024-04-24T10:45:42.778Z,9.75
2024-04-24T10:48:10.051Z,9.82
2024-04-24T10:50:37.004Z,9.78
2024-04-24T10:53:06.755Z,9.77
2024-04-24T10:55:33.725Z,10.07
2024-04-24T10:58:00.581Z,10.22
2024-04-24T11:00:29.918Z,10.48
2024-04-24T11:03:00.577Z,10.53
2024-04-24T11:05:32.884Z,10.29
2024-04-24T11:08:00.326Z,9.47
2024-04-24T11:10:29.899Z,9.77
2024-04-24T11:12:56.823Z,9.77
2024-04-24T11:15:24.263Z,10.00
2024-04-24T11:17:51.366Z,10.20
2024-04-24T11:20:18.514Z,10.26
2024-04-24T11:22:45.515Z,10.30
2024-04-24T11:25:13.526Z,10.11
2024-04-24T11:27:44.092Z,10.08
2024-04-24T11:30:11.224Z,10.16
2024-04-24T11:32:38.241Z,10.23
2024-04-24T11:35:05.669Z,10.37
2024-04-24T11:37:32.572Z,10.44
2024-04-24T11:39:59.452Z,10.43
2024-04-24T11:42:26.348Z,10.47
2024-04-24T11:44:55.795Z,10.33
2024-04-24T11:47:22.712Z,10.41
2024-04-24T11:49:50.622Z,10.53
2024-04-24T11:52:17.444Z,10.54
2024-04-24T11:54:45.742Z,10.47
2024-04-24T11:57:12.695Z,10.29
2024-04-24T11:59:42.919Z,10.36
2024-04-24T12:02:12.349Z,10.33
2024-04-24T12:04:44.256Z,10.36
2024-04-24T12:07:11.191Z,10.40
2024-04-24T12:09:38.094Z,10.45
2024-04-24T12:12:05.462Z,10.59
2024-04-24T12:14:32.424Z,10.64
2024-04-24T12:16:59.334Z,10.67
2024-04-24T12:19:28.879Z,10.81
2024-04-24T12:21:55.714Z,10.86
2024-04-24T12:24:22.581Z,10.89
2024-04-24T12:26:49.577Z,10.94
2024-04-24T12:29:16.533Z,10.82
2024-04-24T12:31:43.404Z,10.60
2024-04-24T12:34:10.359Z,10.47
2024-04-24T12:36:39.959Z,10.48
2024-04-24T12:39:06.936Z,10.40
2024-04-24T12:41:33.785Z,10.53
2024-04-24T12:44:00.692Z,10.63
2024-04-24T12:46:27.579Z,10.43
2024-04-24T12:48:54.730Z,10.41
2024-04-24T12:51:21.633Z,10.34
2024-04-24T12:53:51.125Z,10.35
2024-04-24T12:56:18.078Z,10.25
2024-04-24T12:58:45.168Z,10.46
2024-04-24T13:01:17.990Z,10.06
2024-04-24T13:03:44.925Z,10.07
2024-04-24T13:06:11.776Z,9.94
2024-04-24T13:08:38.641Z,9.89
2024-04-24T13:11:08.363Z,9.91
2024-04-24T13:13:35.209Z,9.62
2024-04-24T13:16:02.024Z,9.69
2024-04-24T13:18:29.982Z,9.83
2024-04-24T13:20:57.006Z,9.96
2024-04-24T13:23:23.890Z,9.92
2024-04-24T13:25:50.755Z,10.03
2024-04-24T13:28:20.223Z,9.98
2024-04-24T13:30:47.109Z,10.02
2024-04-24T13:33:13.978Z,10.16
2024-04-24T13:35:40.831Z,10.07
2024-04-24T13:38:07.671Z,10.10
2024-04-24T13:40:34.532Z,10.11
2024-04-24T13:43:01.405Z,9.93
2024-04-24T13:45:30.937Z,9.84
2024-04-24T13:47:57.926Z,9.79
2024-04-24T13:50:24.911Z,9.63
2024-04-24T13:52:51.872Z,9.69
2024-04-24T13:55:18.748Z,9.69
2024-04-24T13:57:45.634Z,9.80
2024-04-24T14:00:12.836Z,9.73
2024-04-24T14:02:42.413Z,9.64
2024-04-24T14:05:09.331Z,9.08
2024-04-24T14:07:36.170Z,8.86
2024-04-24T14:10:03.181Z,8.63
2024-04-24T14:12:31.907Z,8.80
2024-04-24T14:14:59.709Z,8.65
2024-04-24T14:17:26.705Z,8.70
2024-04-24T14:19:56.331Z,8.69
2024-04-24T14:22:23.248Z,8.55
2024-04-24T14:24:50.075Z,8.47
2024-04-24T14:27:16.900Z,8.41
2024-04-24T14:29:43.719Z,8.55
2024-04-24T14:32:10.632Z,8.82
2024-04-24T14:34:37.560Z,8.98
2024-04-24T14:37:07.018Z,8.95
2024-04-24T14:39:35.396Z,9.05
2024-04-24T14:42:02.659Z,9.10
2024-04-24T14:44:29.571Z,9.16
2024-04-24T14:46:56.456Z,9.24
2024-04-24T14:49:23.309Z,9.35
2024-04-24T14:51:50.223Z,9.47
2024-04-24T14:54:19.767Z,9.34
2024-04-24T14:56:46.623Z,9.32
2024-04-24T14:59:13.760Z,9.33
2024-04-24T15:01:40.743Z,9.32
2024-04-24T15:04:07.612Z,9.38
2024-04-24T15:06:34.473Z,9.36
2024-04-24T15:09:01.378Z,9.49
2024-04-24T15:11:31.019Z,9.39
2024-04-24T15:13:58.280Z,9.36
2024-04-24T15:16:25.233Z,9.45
2024-04-24T15:18:52.097Z,9.54
2024-04-24T15:21:18.998Z,9.61
2024-04-24T15:23:45.830Z,9.74
2024-04-24T15:26:13.032Z,9.76
2024-04-24T15:28:42.508Z,9.57
2024-04-24T15:31:10.719Z,9.43
2024-04-24T15:33:40.247Z,9.46
2024-04-24T15:36:08.913Z,9.60
2024-04-24T15:38:35.793Z,9.66
2024-04-24T15:41:02.750Z,9.29
2024-04-24T15:43:29.627Z,9.34
2024-04-24T15:45:59.215Z,9.14
2024-04-24T15:48:26.223Z,9.03
2024-04-24T15:50:53.257Z,9.10
2024-04-24T15:53:20.207Z,9.08
2024-04-24T15:55:47.104Z,9.05
2024-04-24T15:58:13.973Z,9.09
2024-04-24T16:00:40.818Z,9.28
2024-04-24T16:03:10.371Z,9.16
2024-04-24T16:05:37.347Z,9.37
2024-04-24T16:08:05.126Z,9.54
2024-04-24T16:10:31.978Z,9.61
2024-04-24T16:12:58.907Z,9.74
2024-04-24T16:15:25.781Z,9.76
2024-04-24T16:17:52.690Z,9.71
2024-04-24T16:20:22.415Z,9.91
2024-04-24T16:22:49.322Z,9.92
2024-04-24T16:25:16.225Z,9.92
2024-04-24T16:27:43.161Z,9.88
2024-04-24T16:30:10.502Z,9.83
2024-04-24T16:32:37.571Z,9.74
2024-04-24T16:35:05.002Z,9.84
2024-04-24T16:37:34.607Z,9.83
2024-04-24T16:40:01.470Z,9.88
2024-04-24T16:42:28.325Z,9.96
2024-04-24T16:44:55.368Z,9.96
2024-04-24T16:47:22.653Z,9.94
2024-04-24T16:49:49.558Z,9.96
2024-04-24T16:52:16.383Z,10.02
2024-04-24T16:54:45.909Z,9.98
2024-04-24T16:57:12.765Z,9.98
2024-04-24T16:59:39.700Z,9.90
2024-04-24T17:02:06.680Z,9.90
2024-04-24T17:04:33.831Z,9.90
2024-04-24T17:07:00.825Z,9.75
2024-04-24T17:09:27.767Z,9.76
2024-04-24T17:11:57.458Z,9.66
2024-04-24T17:14:24.645Z,9.62
2024-04-24T17:16:51.510Z,9.66
2024-04-24T17:19:18.669Z,9.69
2024-04-24T17:21:45.699Z,9.67
2024-04-24T17:24:12.627Z,9.68
2024-04-24T17:26:39.718Z,9.71
2024-04-24T17:29:09.305Z,9.78
2024-04-24T17:31:36.329Z,9.74
2024-04-24T17:34:03.189Z,9.71
2024-04-24T17:36:30.233Z,9.79
2024-04-24T17:38:57.107Z,9.78
2024-04-24T17:41:24.005Z,9.74
2024-04-24T17:43:52.611Z,9.77
2024-04-24T17:46:22.049Z,9.43
2024-04-24T17:48:49.023Z,9.34
2024-04-24T17:51:15.958Z,9.00
2024-04-24T17:53:42.844Z,8.79
2024-04-24T17:56:09.710Z,8.64
2024-04-24T17:58:36.635Z,8.58
2024-04-24T18:01:03.805Z,8.29
2024-04-24T18:03:33.462Z,8.15
2024-04-24T18:06:00.372Z,7.94
2024-04-24T18:08:27.414Z,7.93
2024-04-24T18:10:54.378Z,7.84
2024-04-24T18:13:21.234Z,7.85
2024-04-24T18:15:48.138Z,7.85
2024-04-24T18:18:15.064Z,7.78
2024-04-24T18:20:44.852Z,7.70
2024-04-24T18:23:12.129Z,7.93
2024-04-24T18:25:38.986Z,7.96
2024-04-24T18:28:06.147Z,8.00
2024-04-24T18:30:33.019Z,7.98
2024-04-24T18:33:00.060Z,8.06
2024-04-24T18:35:27.129Z,8.06
2024-04-24T18:37:56.698Z,8.04
2024-04-24T18:40:23.718Z,8.02
2024-04-24T18:42:50.664Z,8.03
2024-04-24T18:45:17.633Z,8.14
2024-04-24T18:47:44.776Z,8.17
2024-04-24T18:50:11.905Z,8.19
2024-04-24T18:52:38.863Z,8.22
2024-04-24T18:55:08.561Z,8.13
2024-04-24T18:57:35.435Z,8.17
2024-04-24T19:00:02.529Z,8.06
2024-04-24T19:02:29.610Z,8.15
2024-04-24T19:04:56.563Z,8.15
2024-04-24T19:07:23.500Z,8.18
2024-04-24T19:09:50.329Z,8.21
2024-04-24T19:12:19.945Z,8.09
2024-04-24T19:14:46.908Z,8.08
2024-04-24T19:17:13.887Z,8.14
2024-04-24T19:19:40.830Z,8.15
2024-04-24T19:22:07.729Z,8.12
2024-04-24T19:24:34.572Z,8.20
2024-04-24T19:27:01.386Z,8.16
2024-04-24T19:29:31.062Z,8.05
2024-04-24T19:31:58.058Z,8.02
2024-04-24T19:34:24.970Z,8.09
2024-04-24T19:36:52.352Z,8.07
2024-04-24T19:39:19.829Z,8.14
2024-04-24T19:41:46.858Z,8.13
2024-04-24T19:44:14.143Z,8.18
2024-04-24T19:46:43.815Z,8.22
2024-04-24T19:49:10.682Z,8.18
2024-04-24T19:51:37.615Z,8.21
2024-04-24T19:54:04.612Z,8.14
2024-04-24T19:56:31.615Z,8.12
2024-04-24T19:58:58.468Z,8.17
2024-04-24T20:01:25.335Z,8.20
2024-04-24T20:03:55.168Z,8.23
2024-04-24T20:06:22.798Z,8.23
2024-04-24T20:08:49.987Z,8.14
2024-04-24T20:11:17.336Z,8.11
2024-04-24T20:13:47.664Z,8.02
2024-04-24T20:16:14.628Z,8.04
2024-04-24T20:18:41.534Z,8.11
2024-04-24T20:21:15.931Z,8.04
2024-04-24T20:23:43.039Z,7.97
2024-04-24T20:26:11.675Z,8.08
2024-04-24T20:28:38.588Z,8.05
2024-04-24T20:31:05.492Z,7.90
2024-04-24T20:33:33.604Z,7.57
2024-04-24T20:36:00.546Z,7.57
2024-04-24T20:38:30.876Z,7.50
2024-04-24T20:40:57.699Z,7.52
2024-04-24T20:43:24.579Z,7.60
2024-04-24T20:45:51.837Z,7.57
2024-04-24T20:48:19.133Z,7.56
2024-04-24T20:50:46.395Z,7.57
2024-04-24T20:53:13.480Z,7.55
2024-04-24T20:55:43.451Z,7.55
2024-04-24T20:58:10.302Z,7.57
2024-04-24T21:00:37.424Z,7.58
2024-04-24T21:03:04.722Z,7.56
2024-04-24T21:05:31.763Z,7.58
2024-04-24T21:07:58.580Z,7.57
2024-04-24T21:10:25.397Z,7.60
2024-04-24T21:12:54.815Z,7.54
2024-04-24T21:15:21.667Z,7.51
2024-04-24T21:17:48.563Z,7.50
2024-04-24T21:20:15.613Z,7.52
2024-04-24T21:22:42.476Z,7.49
2024-04-24T21:25:09.305Z,7.43
2024-04-24T21:27:36.131Z,7.41
2024-04-24T21:30:06.234Z,7.40
2024-04-24T21:32:33.430Z,7.39
2024-04-24T21:35:00.423Z,7.33
2024-04-24T21:37:31.413Z,7.33
2024-04-24T21:39:59.357Z,7.33
2024-04-24T21:42:26.607Z,7.31
2024-04-24T21:44:53.552Z,7.27
2024-04-24T21:47:23.094Z,7.20
2024-04-24T21:49:50.193Z,7.05
2024-04-24T21:52:17.451Z,7.00
2024-04-24T21:54:44.436Z,7.11
2024-04-24T21:57:11.389Z,7.13
2024-04-24T21:59:38.525Z,7.11
2024-04-24T22:02:05.777Z,6.88
2024-04-24T22:04:35.253Z,7.02
2024-04-24T22:07:02.219Z,7.08
2024-04-24T22:09:29.028Z,6.86
2024-04-24T22:11:55.962Z,6.99
2024-04-24T22:14:22.893Z,6.94
2024-04-24T22:16:49.723Z,6.89
2024-04-24T22:19:16.941Z,6.86
2024-04-24T22:21:46.516Z,6.74
2024-04-24T22:24:13.750Z,6.71
2024-04-24T22:26:40.664Z,6.78
2024-04-24T22:29:07.554Z,6.90
2024-04-24T22:31:34.403Z,6.83
2024-04-24T22:34:01.257Z,6.82
2024-04-24T22:36:28.176Z,6.76
2024-04-24T22:38:57.738Z,6.72
2024-04-24T22:41:24.610Z,6.52
2024-04-24T22:43:51.468Z,6.48
2024-04-24T22:46:18.330Z,6.52
2024-04-24T22:48:45.338Z,6.45
2024-04-24T22:51:12.412Z,6.36
2024-04-24T22:53:39.310Z,6.36
2024-04-24T22:56:08.901Z,6.25
2024-04-24T22:58:35.799Z,6.28
2024-04-24T23:01:02.659Z,6.28
2024-04-24T23:03:29.525Z,6.30
2024-04-24T23:05:56.347Z,6.24
2024-04-24T23:08:23.196Z,6.25
2024-04-24T23:10:50.404Z,6.09
2024-04-24T23:13:19.990Z,6.15
2024-04-24T23:15:46.903Z,6.17
2024-04-24T23:18:13.781Z,6.14
2024-04-24T23:20:41.415Z,6.11
2024-04-24T23:23:08.584Z,6.03
2024-04-24T23:25:35.469Z,6.21
2024-04-24T23:28:02.271Z,6.05
2024-04-24T23:30:31.848Z,6.11
2024-04-24T23:32:58.844Z,6.09
2024-04-24T23:35:25.774Z,6.21
2024-04-24T23:37:52.629Z,6.26
2024-04-24T23:40:19.478Z,6.38
2024-04-24T23:42:46.298Z,6.34
2024-04-24T23:45:13.309Z,6.30
2024-04-24T23:47:42.945Z,6.23
2024-04-24T23:50:09.902Z,6.21
2024-04-24T23:52:37.010Z,6.19
2024-04-24T23:55:04.534Z,6.13
2024-04-24T23:57:31.420Z,6.15
2024-04-24T23:59:58.298Z,6.06
